createdAt,value
2019-03-05T00:01:02.494Z,1.10
2019-03-05T00:03:32.561Z,1.20
2019-03-05T00:06:02.559Z,1.40
2019-03-05T00:08:32.584Z,1.23
2019-03-05T00:11:02.587Z,1.30
2019-03-05T00:13:32.678Z,1.50
2019-03-05T00:16:02.764Z,1.43
2019-03-05T00:18:32.854Z,1.40
2019-03-05T00:21:03.103Z,1.77
2019-03-05T00:23:57.901Z,1.73
2019-03-05T00:26:31.615Z,1.47
2019-03-05T00:29:24.303Z,1.70
2019-03-05T00:31:54.355Z,1.57
2019-03-05T00:35:09.105Z,1.43
2019-03-05T00:38:13.276Z,1.60
2019-03-05T00:40:56.732Z,1.60
2019-03-05T00:43:55.924Z,1.60
2019-03-05T00:46:51.154Z,1.43
2019-03-05T00:49:36.189Z,1.47
2019-03-05T00:52:37.626Z,1.50
2019-03-05T00:55:51.895Z,1.47
2019-03-05T00:58:41.514Z,1.57
2019-03-05T01:01:48.059Z,1.57
2019-03-05T01:05:14.566Z,1.40
2019-03-05T01:07:44.549Z,1.93
2019-03-05T01:10:15.930Z,1.60
2019-03-05T01:12:46.069Z,1.80
2019-03-05T01:15:16.163Z,1.70
2019-03-05T01:17:46.264Z,1.47
2019-03-05T01:20:16.745Z,1.53
2019-03-05T01:22:46.789Z,1.73
2019-03-05T01:25:28.025Z,1.80
2019-03-05T01:27:58.129Z,1.70
2019-03-05T01:30:43.974Z,1.80
2019-03-05T01:33:15.092Z,1.50
2019-03-05T01:35:52.916Z,2.00
2019-03-05T01:38:22.923Z,1.90
2019-03-05T01:40:57.131Z,1.90
2019-03-05T01:43:27.200Z,1.97
2019-03-05T01:45:57.313Z,1.80
2019-03-05T01:48:27.328Z,2.30
2019-03-05T01:50:57.349Z,2.27
2019-03-05T01:53:27.334Z,2.57
2019-03-05T01:55:57.436Z,2.50
2019-03-05T01:58:27.425Z,2.10
2019-03-05T02:00:57.441Z,2.23
2019-03-05T02:03:27.905Z,2.33
2019-03-05T02:05:58.197Z,2.30
2019-03-05T02:08:28.345Z,2.67
2019-03-05T02:10:58.433Z,2.20
2019-03-05T02:13:30.110Z,2.10
2019-03-05T02:16:00.489Z,2.10
2019-03-05T02:18:30.501Z,2.60
2019-03-05T02:21:00.483Z,2.70
2019-03-05T02:24:01.633Z,2.20
2019-03-05T02:27:09.492Z,2.13
2019-03-05T02:30:01.467Z,1.80
2019-03-05T02:33:12.859Z,2.10
2019-03-05T02:35:59.467Z,2.60
2019-03-05T02:39:20.079Z,2.30
2019-03-05T02:42:37.541Z,2.13
2019-03-05T02:45:39.396Z,2.23
2019-03-05T02:48:35.744Z,2.10
2019-03-05T02:51:43.558Z,2.33
2019-03-05T02:54:56.789Z,2.07
2019-03-05T02:57:25.195Z,2.10
2019-03-05T02:59:55.220Z,2.10
2019-03-05T03:02:37.011Z,2.37
2019-03-05T03:05:15.112Z,2.33
2019-03-05T03:07:45.177Z,2.23
2019-03-05T03:10:20.907Z,2.20
2019-03-05T03:12:50.924Z,2.20
2019-03-05T03:15:21.000Z,2.20
2019-03-05T03:17:52.845Z,2.50
2019-03-05T03:20:24.053Z,2.27
2019-03-05T03:22:54.176Z,2.20
2019-03-05T03:25:24.721Z,2.30
2019-03-05T03:27:54.805Z,1.90
2019-03-05T03:30:26.210Z,1.93
2019-03-05T03:32:57.970Z,2.13
2019-03-05T03:35:28.469Z,2.20
2019-03-05T03:38:00.840Z,2.10
2019-03-05T03:40:30.849Z,2.00
2019-03-05T03:43:00.860Z,2.03
2019-03-05T03:45:31.821Z,1.90
2019-03-05T03:48:02.284Z,2.60
2019-03-05T03:50:32.283Z,2.00
2019-03-05T03:53:02.437Z,2.40
2019-03-05T03:55:32.658Z,2.40
2019-03-05T03:58:02.809Z,2.37
2019-03-05T04:00:32.825Z,2.80
2019-03-05T04:03:02.925Z,2.20
2019-03-05T04:05:32.940Z,2.20
2019-03-05T04:08:02.960Z,2.47
2019-03-05T04:10:32.990Z,2.30
2019-03-05T04:13:03.087Z,2.30
2019-03-05T04:15:33.127Z,2.20
2019-03-05T04:18:03.182Z,2.50
2019-03-05T04:20:53.259Z,2.33
2019-03-05T04:23:23.356Z,2.20
2019-03-05T04:25:53.744Z,2.37
2019-03-05T04:28:23.863Z,2.53
2019-03-05T04:30:53.935Z,2.63
2019-03-05T04:33:24.043Z,2.63
2019-03-05T04:35:54.040Z,2.43
2019-03-05T04:38:24.072Z,2.70
2019-03-05T04:40:55.908Z,2.40
2019-03-05T04:43:25.914Z,3.17
2019-03-05T04:46:02.795Z,2.40
2019-03-05T04:48:32.793Z,2.50
2019-03-05T04:51:06.442Z,2.13
2019-03-05T04:53:36.487Z,1.70
2019-03-05T04:56:06.533Z,2.00
2019-03-05T04:58:36.516Z,1.50
2019-03-05T05:01:06.566Z,1.70
2019-03-05T05:03:36.634Z,1.60
2019-03-05T05:06:07.443Z,1.67
2019-03-05T05:08:38.918Z,1.50
2019-03-05T05:11:08.955Z,1.50
2019-03-05T05:13:40.654Z,1.40
2019-03-05T05:16:10.754Z,1.30
2019-03-05T05:18:40.767Z,1.30
2019-03-05T05:21:10.897Z,1.50
2019-03-05T05:23:40.918Z,1.53
2019-03-05T05:26:10.997Z,1.70
2019-03-05T05:28:41.475Z,1.80
2019-03-05T05:31:11.465Z,1.90
2019-03-05T05:33:41.585Z,1.90
2019-03-05T05:36:12.059Z,1.80
2019-03-05T05:38:42.079Z,1.97
2019-03-05T05:41:12.186Z,2.20
2019-03-05T05:43:42.523Z,2.20
2019-03-05T05:46:12.525Z,2.07
2019-03-05T05:48:42.589Z,2.00
2019-03-05T05:51:12.577Z,1.80
2019-03-05T05:53:42.610Z,1.57
2019-03-05T05:56:12.609Z,1.47
2019-03-05T05:58:42.739Z,1.43
2019-03-05T06:01:13.712Z,1.50
2019-03-05T06:03:43.709Z,1.70
2019-03-05T06:06:13.699Z,1.70
2019-03-05T06:08:43.735Z,1.60
2019-03-05T06:11:13.721Z,1.63
2019-03-05T06:13:43.770Z,1.80
2019-03-05T06:16:14.250Z,1.57
2019-03-05T06:18:44.273Z,1.80
2019-03-05T06:21:14.418Z,2.03
2019-03-05T06:23:44.559Z,2.00
2019-03-05T06:26:14.549Z,2.17
2019-03-05T06:28:44.562Z,2.33
2019-03-05T06:31:14.565Z,2.30
2019-03-05T06:33:44.587Z,2.13
2019-03-05T06:36:14.659Z,2.20
2019-03-05T06:38:44.917Z,2.30
2019-03-05T06:41:15.029Z,2.30
2019-03-05T06:43:45.103Z,2.50
2019-03-05T06:46:15.086Z,2.70
2019-03-05T06:48:45.098Z,2.70
2019-03-05T06:51:15.095Z,3.00
2019-03-05T06:53:45.110Z,3.50
2019-03-05T06:56:15.201Z,3.07
2019-03-05T06:58:45.231Z,3.40
2019-03-05T07:01:15.312Z,3.10
2019-03-05T07:03:45.325Z,3.30
2019-03-05T07:06:52.727Z,3.60
2019-03-05T07:09:35.463Z,3.23
2019-03-05T07:12:10.656Z,3.50
2019-03-05T07:15:26.619Z,3.13
2019-03-05T07:18:01.496Z,3.37
2019-03-05T07:21:05.047Z,2.90
2019-03-05T07:24:09.202Z,3.30
2019-03-05T07:26:39.360Z,2.83
2019-03-05T07:29:09.357Z,3.00
2019-03-05T07:31:39.416Z,2.50
2019-03-05T07:34:15.711Z,2.80
2019-03-05T07:36:46.293Z,3.33
2019-03-05T07:39:21.624Z,2.90
2019-03-05T07:41:51.653Z,2.63
2019-03-05T07:44:21.773Z,2.47
2019-03-05T07:46:51.929Z,2.73
2019-03-05T07:49:22.100Z,2.53
2019-03-05T07:51:52.201Z,2.40
2019-03-05T07:54:22.216Z,2.27
2019-03-05T07:56:52.270Z,2.37
2019-03-05T07:59:22.619Z,2.30
2019-03-05T08:01:52.937Z,2.10
2019-03-05T08:04:25.310Z,2.30
2019-03-05T08:06:55.325Z,2.10
2019-03-05T08:09:32.926Z,1.90
2019-03-05T08:12:42.759Z,2.03
2019-03-05T08:15:37.730Z,2.30
2019-03-05T08:18:07.932Z,2.00
2019-03-05T08:20:37.969Z,2.10
2019-03-05T08:23:08.557Z,2.97
2019-03-05T08:25:38.551Z,2.50
2019-03-05T08:28:08.724Z,2.20
2019-03-05T08:30:38.935Z,2.07
2019-03-05T08:33:09.018Z,2.40
2019-03-05T08:35:38.995Z,2.50
2019-03-05T08:38:08.981Z,2.10
2019-03-05T08:40:39.155Z,2.10
2019-03-05T08:43:09.306Z,1.80
2019-03-05T08:45:39.481Z,1.73
2019-03-05T08:48:09.489Z,2.30
2019-03-05T08:50:39.524Z,2.40
2019-03-05T08:53:09.509Z,1.97
2019-03-05T08:55:39.526Z,2.00
2019-03-05T08:58:09.661Z,2.00
2019-03-05T09:00:39.746Z,2.70
2019-03-05T09:03:09.769Z,2.53
2019-03-05T09:05:39.984Z,2.20
2019-03-05T09:08:10.038Z,2.23
2019-03-05T09:10:40.127Z,2.10
2019-03-05T09:13:10.480Z,2.07
2019-03-05T09:15:43.113Z,1.80
2019-03-05T09:18:13.396Z,2.00
2019-03-05T09:20:43.544Z,1.93
2019-03-05T09:23:13.569Z,2.10
2019-03-05T09:25:44.174Z,2.30
2019-03-05T09:28:14.421Z,2.00
2019-03-05T09:30:44.528Z,1.90
2019-03-05T09:33:19.038Z,1.70
2019-03-05T09:35:48.161Z,2.20
2019-03-05T09:38:20.232Z,1.90
2019-03-05T09:40:51.864Z,2.33
2019-03-05T09:43:24.583Z,2.03
2019-03-05T09:45:54.991Z,2.00
2019-03-05T09:48:25.201Z,1.97
2019-03-05T09:50:55.373Z,1.60
2019-03-05T09:53:25.544Z,1.97
2019-03-05T09:55:55.655Z,1.83
2019-03-05T09:58:25.732Z,1.70
2019-03-05T10:00:57.776Z,1.73
2019-03-05T10:03:28.001Z,1.40
2019-03-05T10:05:58.305Z,1.80
2019-03-05T10:08:32.497Z,1.67
2019-03-05T10:11:00.192Z,1.43
2019-03-05T10:13:30.209Z,1.33
2019-03-05T10:16:00.222Z,1.37
2019-03-05T10:18:30.436Z,1.43
2019-03-05T10:21:00.687Z,1.40
2019-03-05T10:23:30.690Z,1.40
2019-03-05T10:26:01.068Z,1.10
2019-03-05T10:28:31.700Z,1.40
2019-03-05T10:31:01.715Z,1.03
2019-03-05T10:33:31.705Z,1.70
2019-03-05T10:36:01.831Z,1.30
2019-03-05T10:38:31.939Z,1.30
2019-03-05T10:41:02.396Z,1.30
2019-03-05T10:43:32.483Z,1.40
2019-03-05T10:46:02.531Z,1.40
2019-03-05T10:48:32.541Z,1.40
2019-03-05T10:51:02.739Z,1.30
2019-03-05T10:53:33.345Z,1.60
2019-03-05T10:56:05.116Z,1.70
2019-03-05T10:58:35.267Z,1.60
2019-03-05T11:01:11.546Z,1.90
2019-03-05T11:03:42.823Z,1.70
2019-03-05T11:06:14.232Z,1.97
2019-03-05T11:08:44.388Z,1.63
2019-03-05T11:11:14.488Z,1.60
2019-03-05T11:13:44.749Z,1.40
2019-03-05T11:16:14.878Z,1.73
2019-03-05T11:18:44.907Z,1.80
2019-03-05T11:21:14.987Z,1.40
2019-03-05T11:23:45.078Z,1.60
2019-03-05T11:26:15.278Z,1.40
2019-03-05T11:28:48.402Z,1.40
2019-03-05T11:31:18.561Z,1.40
2019-03-05T11:33:49.030Z,1.40
2019-03-05T11:36:19.642Z,1.40
2019-03-05T11:38:49.935Z,1.43
2019-03-05T11:41:19.941Z,1.70
2019-03-05T11:43:50.143Z,1.60
2019-03-05T11:46:20.548Z,1.43
2019-03-05T11:48:50.686Z,1.47
2019-03-05T11:51:20.895Z,1.37
2019-03-05T11:53:50.908Z,1.30
2019-03-05T11:56:22.676Z,1.40
2019-03-05T11:58:52.748Z,1.30
2019-03-05T12:01:44.908Z,1.60
2019-03-05T12:04:15.141Z,1.47
2019-03-05T12:06:45.524Z,1.60
2019-03-05T12:09:15.669Z,1.50
2019-03-05T12:11:45.690Z,1.90
2019-03-05T12:14:15.691Z,1.30
2019-03-05T12:16:46.022Z,1.60
2019-03-05T12:19:16.085Z,1.53
2019-03-05T12:21:46.582Z,1.40
2019-03-05T12:24:19.940Z,1.43
2019-03-05T12:26:48.840Z,1.50
2019-03-05T12:29:18.878Z,2.30
2019-03-05T12:31:48.906Z,1.53
2019-03-05T12:34:19.028Z,1.40
2019-03-05T12:36:49.147Z,1.60
2019-03-05T12:39:20.672Z,1.73
2019-03-05T12:41:51.035Z,1.30
2019-03-05T12:44:21.045Z,1.60
2019-03-05T12:46:51.088Z,1.70
2019-03-05T12:49:21.784Z,1.47
2019-03-05T12:51:51.818Z,1.70
2019-03-05T12:54:21.833Z,1.60
2019-03-05T12:56:51.900Z,1.67
2019-03-05T12:59:21.975Z,1.83
2019-03-05T13:01:52.094Z,1.80
2019-03-05T13:04:22.459Z,2.23
2019-03-05T13:06:52.623Z,1.30
2019-03-05T13:09:22.710Z,1.40
2019-03-05T13:11:52.859Z,1.87
2019-03-05T13:14:22.869Z,1.70
2019-03-05T13:16:52.932Z,1.63
2019-03-05T13:19:23.076Z,1.40
2019-03-05T13:21:53.159Z,1.30
2019-03-05T13:24:23.139Z,1.47
2019-03-05T13:26:53.767Z,1.77
2019-03-05T13:29:24.040Z,1.70
2019-03-05T13:31:54.175Z,1.70
2019-03-05T13:34:24.318Z,2.00
2019-03-05T13:36:54.383Z,1.60
2019-03-05T13:39:25.226Z,1.70
2019-03-05T13:41:55.689Z,1.60
2019-03-05T13:44:33.932Z,1.60
2019-03-05T13:47:06.573Z,1.60
2019-03-05T13:50:20.438Z,1.73
2019-03-05T13:53:14.600Z,1.43
2019-03-05T13:56:28.040Z,1.80
2019-03-05T13:59:34.609Z,1.80
2019-03-05T14:02:06.274Z,1.90
2019-03-05T14:04:47.574Z,1.57
2019-03-05T14:07:58.411Z,1.93
2019-03-05T14:10:28.727Z,1.60
2019-03-05T14:12:58.943Z,1.80
2019-03-05T14:15:29.154Z,1.70
2019-03-05T14:17:59.197Z,1.73
2019-03-05T14:20:32.733Z,1.63
2019-03-05T14:23:03.445Z,2.30
2019-03-05T14:25:35.965Z,2.03
2019-03-05T14:28:06.302Z,1.63
2019-03-05T14:30:37.256Z,1.80
2019-03-05T14:33:07.518Z,2.00
2019-03-05T14:35:37.818Z,1.73
2019-03-05T14:38:07.891Z,1.90
2019-03-05T14:40:38.211Z,1.80
2019-03-05T14:43:08.276Z,1.60
2019-03-05T14:45:38.531Z,2.00
2019-03-05T14:48:08.712Z,1.60
2019-03-05T14:50:39.083Z,1.63
2019-03-05T14:53:09.312Z,1.40
2019-03-05T14:55:39.822Z,1.40
2019-03-05T14:58:11.595Z,1.40
2019-03-05T15:00:41.765Z,1.67
2019-03-05T15:03:11.838Z,1.90
2019-03-05T15:05:42.031Z,1.50
2019-03-05T15:08:12.321Z,1.60
2019-03-05T15:10:42.662Z,1.73
2019-03-05T15:13:18.581Z,1.60
2019-03-05T15:15:47.424Z,1.80
2019-03-05T15:18:17.643Z,1.40
2019-03-05T15:20:47.699Z,1.50
2019-03-05T15:23:17.906Z,1.70
2019-03-05T15:25:48.036Z,1.57
2019-03-05T15:28:18.128Z,1.40
2019-03-05T15:30:48.137Z,1.50
2019-03-05T15:33:18.206Z,1.30
2019-03-05T15:35:48.291Z,2.00
2019-03-05T15:38:19.829Z,1.80
2019-03-05T15:40:49.860Z,1.70
2019-03-05T15:43:24.107Z,1.87
2019-03-05T15:45:58.154Z,1.90
2019-03-05T15:48:28.273Z,1.73
2019-03-05T15:50:58.275Z,1.60
2019-03-05T15:53:28.507Z,2.00
2019-03-05T15:55:58.736Z,2.37
2019-03-05T15:58:28.959Z,1.73
2019-03-05T16:00:59.036Z,2.07
2019-03-05T16:03:29.044Z,1.73
2019-03-05T16:05:59.040Z,2.00
2019-03-05T16:08:29.064Z,1.70
2019-03-05T16:10:59.237Z,1.97
2019-03-05T16:13:29.299Z,1.57
2019-03-05T16:15:59.534Z,2.17
2019-03-05T16:18:29.527Z,2.03
2019-03-05T16:21:02.617Z,1.70
2019-03-05T16:23:31.429Z,1.70
2019-03-05T16:26:03.859Z,1.70
2019-03-05T16:28:33.732Z,1.50
2019-03-05T16:31:25.908Z,1.70
2019-03-05T16:34:13.082Z,2.00
2019-03-05T16:37:02.124Z,1.93
2019-03-05T16:39:53.588Z,1.90
2019-03-05T16:42:48.867Z,2.20
2019-03-05T16:45:38.234Z,2.00
2019-03-05T16:48:42.408Z,1.97
2019-03-05T16:51:21.090Z,2.23
2019-03-05T16:54:08.629Z,2.30
2019-03-05T16:57:03.479Z,2.30
2019-03-05T16:59:53.288Z,2.00
2019-03-05T17:02:41.431Z,2.17
2019-03-05T17:05:30.063Z,2.93
2019-03-05T17:08:27.151Z,2.70
2019-03-05T17:11:34.403Z,2.40
2019-03-05T17:14:06.500Z,2.40
2019-03-05T17:16:36.984Z,2.50
2019-03-05T17:19:07.224Z,2.77
2019-03-05T17:21:37.353Z,3.10
2019-03-05T17:24:11.184Z,3.13
2019-03-05T17:26:41.387Z,3.00
2019-03-05T17:29:11.461Z,2.63
2019-03-05T17:31:46.530Z,3.03
2019-03-05T17:34:18.677Z,3.27
2019-03-05T17:36:48.722Z,2.90
2019-03-05T17:39:19.889Z,2.70
2019-03-05T17:41:50.176Z,3.30
2019-03-05T17:44:20.329Z,4.30
2019-03-05T17:46:50.325Z,3.90
2019-03-05T17:49:21.618Z,3.33
2019-03-05T17:51:51.949Z,3.20
2019-03-05T17:54:22.231Z,3.47
2019-03-05T17:56:52.809Z,3.27
2019-03-05T17:59:22.947Z,3.40
2019-03-05T18:01:54.917Z,3.57
2019-03-05T18:04:25.375Z,3.53
2019-03-05T18:06:55.476Z,3.43
2019-03-05T18:09:27.259Z,3.73
2019-03-05T18:11:57.450Z,3.40
2019-03-05T18:14:27.477Z,3.20
2019-03-05T18:16:57.913Z,3.00
2019-03-05T18:19:30.039Z,3.20
2019-03-05T18:22:00.203Z,3.33
2019-03-05T18:24:30.371Z,3.17
2019-03-05T18:27:00.443Z,3.87
2019-03-05T18:29:30.775Z,2.70
2019-03-05T18:32:00.972Z,3.53
2019-03-05T18:34:31.109Z,3.27
2019-03-05T18:37:01.277Z,3.23
2019-03-05T18:39:31.424Z,3.20
2019-03-05T18:42:03.163Z,2.90
2019-03-05T18:44:33.227Z,3.00
2019-03-05T18:47:05.354Z,3.20
2019-03-05T18:49:37.140Z,3.30
2019-03-05T18:52:08.647Z,3.03
2019-03-05T18:54:38.739Z,3.97
2019-03-05T18:57:08.766Z,3.37
2019-03-05T18:59:38.927Z,3.23
2019-03-05T19:02:09.007Z,3.20
2019-03-05T19:04:39.289Z,3.10
2019-03-05T19:07:12.039Z,3.00
2019-03-05T19:09:45.431Z,2.90
2019-03-05T19:12:15.482Z,2.97
2019-03-05T19:14:45.577Z,3.00
2019-03-05T19:17:15.850Z,2.70
2019-03-05T19:19:45.905Z,2.60
2019-03-05T19:22:16.032Z,3.07
2019-03-05T19:24:46.209Z,3.10
2019-03-05T19:27:25.869Z,2.93
2019-03-05T19:29:49.531Z,2.80
2019-03-05T19:32:19.611Z,3.00
2019-03-05T19:34:49.748Z,3.20
2019-03-05T19:37:20.132Z,3.63
2019-03-05T19:39:50.183Z,3.53
2019-03-05T19:42:20.345Z,3.07
2019-03-05T19:44:50.518Z,3.20
2019-03-05T19:47:20.816Z,2.97
2019-03-05T19:49:50.907Z,3.30
2019-03-05T19:52:20.925Z,2.80
2019-03-05T19:54:51.092Z,2.93
2019-03-05T19:57:21.184Z,3.13
2019-03-05T19:59:54.896Z,3.00
2019-03-05T20:02:25.046Z,3.10
2019-03-05T20:04:55.097Z,3.00
2019-03-05T20:07:25.173Z,3.30
2019-03-05T20:09:55.555Z,4.43
2019-03-05T20:12:25.965Z,3.00
2019-03-05T20:14:56.070Z,3.13
2019-03-05T20:17:26.285Z,3.30
2019-03-05T20:19:56.400Z,3.20
2019-03-05T20:22:26.482Z,3.20
2019-03-05T20:24:56.589Z,3.60
2019-03-05T20:27:26.690Z,2.80
2019-03-05T20:29:56.909Z,3.10
2019-03-05T20:32:27.293Z,3.50
2019-03-05T20:34:57.454Z,3.60
2019-03-05T20:37:27.622Z,3.53
2019-03-05T20:39:57.820Z,3.40
2019-03-05T20:42:27.839Z,3.53
2019-03-05T20:44:57.893Z,3.53
2019-03-05T20:47:28.097Z,3.40
2019-03-05T20:49:58.307Z,3.50
2019-03-05T20:52:28.450Z,3.37
2019-03-05T20:54:58.637Z,3.27
2019-03-05T20:57:28.966Z,3.37
2019-03-05T20:59:59.073Z,3.27
2019-03-05T21:02:29.627Z,3.60
2019-03-05T21:04:59.752Z,4.53
2019-03-05T21:07:30.285Z,3.90
2019-03-05T21:10:00.399Z,3.97
2019-03-05T21:12:30.490Z,3.57
2019-03-05T21:15:00.556Z,3.63
2019-03-05T21:17:30.655Z,3.97
2019-03-05T21:20:01.056Z,3.37
2019-03-05T21:22:32.164Z,3.63
2019-03-05T21:25:02.265Z,3.60
2019-03-05T21:27:32.269Z,4.27
2019-03-05T21:30:02.765Z,3.90
2019-03-05T21:32:32.826Z,4.20
2019-03-05T21:35:02.888Z,4.80
2019-03-05T21:37:33.015Z,4.60
2019-03-05T21:40:03.365Z,4.20
2019-03-05T21:42:33.467Z,4.53
2019-03-05T21:45:04.070Z,5.77
2019-03-05T21:47:34.211Z,5.63
2019-03-05T21:50:05.029Z,5.83
2019-03-05T21:52:35.405Z,6.10
2019-03-05T21:55:06.103Z,6.60
2019-03-05T21:57:36.149Z,6.33
2019-03-05T22:00:08.402Z,6.23
2019-03-05T22:02:38.465Z,6.40
2019-03-05T22:05:10.188Z,6.67
2019-03-05T22:07:40.315Z,8.30
2019-03-05T22:10:13.091Z,7.60
2019-03-05T22:12:43.222Z,7.57
2019-03-05T22:15:15.019Z,8.33
2019-03-05T22:17:45.032Z,7.57
2019-03-05T22:20:15.591Z,8.37
2019-03-05T22:22:47.933Z,7.97
2019-03-05T22:25:19.134Z,8.53
2019-03-05T22:27:49.123Z,9.10
2019-03-05T22:30:21.288Z,9.10
2019-03-05T22:32:51.399Z,8.77
2019-03-05T22:35:40.887Z,9.40
2019-03-05T22:38:23.128Z,9.27
2019-03-05T22:41:05.667Z,9.40
2019-03-05T22:43:47.612Z,9.80
2019-03-05T22:46:30.168Z,9.27
2019-03-05T22:49:12.225Z,8.80
2019-03-05T22:51:54.292Z,9.40
2019-03-05T22:54:38.805Z,9.03
2019-03-05T22:57:21.130Z,8.93
2019-03-05T23:00:02.987Z,9.30
2019-03-05T23:02:48.340Z,9.00
2019-03-05T23:05:30.275Z,9.10
2019-03-05T23:08:11.957Z,9.20
2019-03-05T23:10:54.908Z,9.37
2019-03-05T23:13:38.145Z,9.50
2019-03-05T23:16:20.470Z,8.87
2019-03-05T23:19:02.958Z,8.50
2019-03-05T23:21:44.723Z,8.50
2019-03-05T23:24:26.847Z,9.30
2019-03-05T23:27:09.268Z,8.43
2019-03-05T23:29:51.085Z,8.37
2019-03-05T23:32:32.907Z,8.60
2019-03-05T23:35:14.932Z,8.80
2019-03-05T23:37:56.511Z,8.27
2019-03-05T23:40:38.534Z,8.83
2019-03-05T23:43:21.057Z,7.97
2019-03-05T23:46:03.325Z,8.53
2019-03-05T23:48:45.521Z,7.83
2019-03-05T23:51:27.463Z,7.67
2019-03-05T23:53:57.509Z,7.83
2019-03-05T23:56:46.642Z,7.63
2019-03-05T23:59:28.221Z,8.00
